sensor_id;sensor_type;location;lat;lon;timestamp;P1;durP1;ratioP1;P2;durP2;ratioP2
76423;SDS011;65257;52.104;4.268;2024-02-04T00:01:02;36.83;;;7.97;;
76423;SDS011;65257;52.104;4.268;2024-02-04T00:03:28;36.00;;;7.88;;
76423;SDS011;65257;52.104;4.268;2024-02-04T00:05:59;33.35;;;8.40;;
76423;SDS011;65257;52.104;4.268;2024-02-04T00:08:25;32.67;;;7.15;;
76423;SDS011;65257;52.104;4.268;2024-02-04T00:10:53;39.13;;;8.40;;
76423;SDS011;65257;52.104;4.268;2024-02-04T00:13:19;32.78;;;7.57;;
76423;SDS011;65257;52.104;4.268;2024-02-04T00:15:44;34.75;;;7.97;;
76423;SDS011;65257;52.104;4.268;2024-02-04T00:18:09;25.55;;;7.00;;
76423;SDS011;65257;52.104;4.268;2024-02-04T00:20:35;36.47;;;8.55;;
76423;SDS011;65257;52.104;4.268;2024-02-04T00:25:28;28.63;;;8.23;;
76423;SDS011;65257;52.104;4.268;2024-02-04T00:27:59;24.85;;;7.25;;
76423;SDS011;65257;52.104;4.268;2024-02-04T00:30:24;29.40;;;8.23;;
76423;SDS011;65257;52.104;4.268;2024-02-04T00:32:51;34.33;;;8.02;;
76423;SDS011;65257;52.104;4.268;2024-02-04T00:35:16;45.33;;;10.18;;
76423;SDS011;65257;52.104;4.268;2024-02-04T00:37:42;47.78;;;9.43;;
76423;SDS011;65257;52.104;4.268;2024-02-04T00:40:07;42.53;;;9.23;;
76423;SDS011;65257;52.104;4.268;2024-02-04T00:42:35;32.30;;;8.32;;
76423;SDS011;65257;52.104;4.268;2024-02-04T00:45:01;34.00;;;8.43;;
76423;SDS011;65257;52.104;4.268;2024-02-04T00:47:26;40.30;;;7.93;;
76423;SDS011;65257;52.104;4.268;2024-02-04T00:49:54;38.60;;;8.13;;
76423;SDS011;65257;52.104;4.268;2024-02-04T00:52:20;29.67;;;8.00;;
76423;SDS011;65257;52.104;4.268;2024-02-04T00:54:45;31.60;;;8.43;;
76423;SDS011;65257;52.104;4.268;2024-02-04T00:57:10;31.70;;;9.38;;
76423;SDS011;65257;52.104;4.268;2024-02-04T00:59:36;39.13;;;8.70;;
76423;SDS011;65257;52.104;4.268;2024-02-04T01:02:04;33.38;;;7.53;;
76423;SDS011;65257;52.104;4.268;2024-02-04T01:04:33;29.55;;;7.80;;
76423;SDS011;65257;52.104;4.268;2024-02-04T01:07:04;40.05;;;8.82;;
76423;SDS011;65257;52.104;4.268;2024-02-04T01:09:30;38.70;;;9.30;;
76423;SDS011;65257;52.104;4.268;2024-02-04T01:11:58;38.25;;;8.20;;
76423;SDS011;65257;52.104;4.268;2024-02-04T01:14:32;29.63;;;7.95;;
76423;SDS011;65257;52.104;4.268;2024-02-04T01:17:01;33.80;;;9.02;;
76423;SDS011;65257;52.104;4.268;2024-02-04T01:19:30;24.40;;;6.97;;
76423;SDS011;65257;52.104;4.268;2024-02-04T01:21:58;29.63;;;7.63;;
76423;SDS011;65257;52.104;4.268;2024-02-04T01:24:24;30.48;;;8.30;;
76423;SDS011;65257;52.104;4.268;2024-02-04T01:26:50;39.92;;;8.05;;
76423;SDS011;65257;52.104;4.268;2024-02-04T01:29:16;36.97;;;7.63;;
76423;SDS011;65257;52.104;4.268;2024-02-04T01:31:42;30.20;;;7.82;;
76423;SDS011;65257;52.104;4.268;2024-02-04T01:34:07;30.48;;;7.47;;
76423;SDS011;65257;52.104;4.268;2024-02-04T01:36:32;26.63;;;7.70;;
76423;SDS011;65257;52.104;4.268;2024-02-04T01:39:07;30.73;;;7.00;;
76423;SDS011;65257;52.104;4.268;2024-02-04T01:41:32;28.08;;;6.80;;
76423;SDS011;65257;52.104;4.268;2024-02-04T01:43:58;32.78;;;7.00;;
76423;SDS011;65257;52.104;4.268;2024-02-04T01:46:23;28.00;;;7.43;;
76423;SDS011;65257;52.104;4.268;2024-02-04T01:48:52;32.38;;;7.47;;
76423;SDS011;65257;52.104;4.268;2024-02-04T01:51:21;29.63;;;6.55;;
76423;SDS011;65257;52.104;4.268;2024-02-04T01:53:52;28.15;;;7.28;;
76423;SDS011;65257;52.104;4.268;2024-02-04T01:56:18;20.58;;;6.85;;
76423;SDS011;65257;52.104;4.268;2024-02-04T01:58:44;30.52;;;8.02;;
76423;SDS011;65257;52.104;4.268;2024-02-04T02:01:16;35.58;;;7.68;;
76423;SDS011;65257;52.104;4.268;2024-02-04T02:03:45;25.67;;;7.93;;
76423;SDS011;65257;52.104;4.268;2024-02-04T02:06:15;27.08;;;7.47;;
76423;SDS011;65257;52.104;4.268;2024-02-04T02:08:41;30.50;;;7.47;;
76423;SDS011;65257;52.104;4.268;2024-02-04T02:11:57;31.25;;;7.97;;
76423;SDS011;65257;52.104;4.268;2024-02-04T02:14:06;20.48;;;7.28;;
76423;SDS011;65257;52.104;4.268;2024-02-04T02:16:41;23.75;;;8.55;;
76423;SDS011;65257;52.104;4.268;2024-02-04T02:24:58;26.33;;;6.75;;
76423;SDS011;65257;52.104;4.268;2024-02-04T02:27:26;28.08;;;6.35;;
76423;SDS011;65257;52.104;4.268;2024-02-04T02:29:52;31.23;;;6.13;;
76423;SDS011;65257;52.104;4.268;2024-02-04T02:32:27;28.50;;;6.43;;
76423;SDS011;65257;52.104;4.268;2024-02-04T02:34:55;30.58;;;6.40;;
76423;SDS011;65257;52.104;4.268;2024-02-04T02:37:33;32.25;;;6.72;;
76423;SDS011;65257;52.104;4.268;2024-02-04T02:42:32;23.10;;;5.65;;
76423;SDS011;65257;52.104;4.268;2024-02-04T02:45:00;19.17;;;5.85;;
76423;SDS011;65257;52.104;4.268;2024-02-04T02:47:26;28.23;;;5.85;;
76423;SDS011;65257;52.104;4.268;2024-02-04T02:49:57;24.10;;;5.72;;
76423;SDS011;65257;52.104;4.268;2024-02-04T02:52:22;32.88;;;6.88;;
76423;SDS011;65257;52.104;4.268;2024-02-04T02:54:48;22.20;;;6.60;;
76423;SDS011;65257;52.104;4.268;2024-02-04T02:57:13;28.10;;;7.28;;
76423;SDS011;65257;52.104;4.268;2024-02-04T02:59:39;25.48;;;6.70;;
76423;SDS011;65257;52.104;4.268;2024-02-04T03:02:04;31.80;;;5.28;;
76423;SDS011;65257;52.104;4.268;2024-02-04T03:04:29;25.70;;;5.13;;
76423;SDS011;65257;52.104;4.268;2024-02-04T03:06:55;18.27;;;5.03;;
76423;SDS011;65257;52.104;4.268;2024-02-04T03:09:23;21.98;;;5.90;;
76423;SDS011;65257;52.104;4.268;2024-02-04T03:11:52;18.25;;;5.10;;
76423;SDS011;65257;52.104;4.268;2024-02-04T03:14:18;24.55;;;5.78;;
76423;SDS011;65257;52.104;4.268;2024-02-04T03:16:45;29.52;;;5.88;;
76423;SDS011;65257;52.104;4.268;2024-02-04T03:19:11;23.50;;;5.53;;
76423;SDS011;65257;52.104;4.268;2024-02-04T03:21:36;19.15;;;5.00;;
76423;SDS011;65257;52.104;4.268;2024-02-04T03:24:01;35.10;;;6.50;;
76423;SDS011;65257;52.104;4.268;2024-02-04T03:26:27;25.42;;;5.85;;
76423;SDS011;65257;52.104;4.268;2024-02-04T03:28:52;22.70;;;5.43;;
76423;SDS011;65257;52.104;4.268;2024-02-04T03:31:21;21.55;;;5.75;;
76423;SDS011;65257;52.104;4.268;2024-02-04T03:33:47;19.13;;;5.43;;
76423;SDS011;65257;52.104;4.268;2024-02-04T03:36:21;22.85;;;5.85;;
76423;SDS011;65257;52.104;4.268;2024-02-04T03:38:49;22.05;;;5.40;;
76423;SDS011;65257;52.104;4.268;2024-02-04T03:41:15;26.65;;;6.00;;
76423;SDS011;65257;52.104;4.268;2024-02-04T03:43:41;20.80;;;5.28;;
76423;SDS011;65257;52.104;4.268;2024-02-04T03:46:06;18.60;;;5.88;;
76423;SDS011;65257;52.104;4.268;2024-02-04T03:48:32;32.50;;;6.03;;
76423;SDS011;65257;52.104;4.268;2024-02-04T03:50:59;32.38;;;5.88;;
76423;SDS011;65257;52.104;4.268;2024-02-04T03:53:33;33.67;;;6.80;;
76423;SDS011;65257;52.104;4.268;2024-02-04T03:55:59;17.75;;;5.53;;
76423;SDS011;65257;52.104;4.268;2024-02-04T03:58:27;23.75;;;5.90;;
76423;SDS011;65257;52.104;4.268;2024-02-04T04:00:56;21.40;;;5.38;;
76423;SDS011;65257;52.104;4.268;2024-02-04T04:03:26;23.48;;;4.70;;
76423;SDS011;65257;52.104;4.268;2024-02-04T04:05:53;20.92;;;4.47;;
76423;SDS011;65257;52.104;4.268;2024-02-04T04:08:21;18.50;;;4.50;;
76423;SDS011;65257;52.104;4.268;2024-02-04T04:10:46;20.58;;;5.80;;
76423;SDS011;65257;52.104;4.268;2024-02-04T04:13:15;20.77;;;5.47;;
76423;SDS011;65257;52.104;4.268;2024-02-04T04:15:40;20.83;;;6.53;;
76423;SDS011;65257;52.104;4.268;2024-02-04T04:18:07;19.80;;;4.93;;
76423;SDS011;65257;52.104;4.268;2024-02-04T04:20:40;31.85;;;5.53;;
76423;SDS011;65257;52.104;4.268;2024-02-04T04:23:06;15.85;;;4.57;;
76423;SDS011;65257;52.104;4.268;2024-02-04T04:25:31;18.73;;;5.60;;
76423;SDS011;65257;52.104;4.268;2024-02-04T04:27:57;17.23;;;4.00;;
76423;SDS011;65257;52.104;4.268;2024-02-04T04:30:23;20.42;;;4.30;;
76423;SDS011;65257;52.104;4.268;2024-02-04T04:32:48;17.10;;;4.57;;
76423;SDS011;65257;52.104;4.268;2024-02-04T04:35:14;22.00;;;4.68;;
76423;SDS011;65257;52.104;4.268;2024-02-04T04:37:42;19.15;;;5.15;;
76423;SDS011;65257;52.104;4.268;2024-02-04T04:40:08;20.75;;;4.93;;
76423;SDS011;65257;52.104;4.268;2024-02-04T04:42:38;21.88;;;6.05;;
76423;SDS011;65257;52.104;4.268;2024-02-04T04:45:04;27.13;;;5.57;;
76423;SDS011;65257;52.104;4.268;2024-02-04T04:47:34;21.13;;;6.88;;
76423;SDS011;65257;52.104;4.268;2024-02-04T04:50:02;28.77;;;8.55;;
76423;SDS011;65257;52.104;4.268;2024-02-04T04:52:31;21.33;;;7.75;;
76423;SDS011;65257;52.104;4.268;2024-02-04T04:54:57;25.27;;;8.27;;
76423;SDS011;65257;52.104;4.268;2024-02-04T04:57:25;33.05;;;6.82;;
76423;SDS011;65257;52.104;4.268;2024-02-04T04:59:51;26.27;;;7.22;;
76423;SDS011;65257;52.104;4.268;2024-02-04T05:02:16;19.48;;;6.15;;
76423;SDS011;65257;52.104;4.268;2024-02-04T05:04:42;22.77;;;6.18;;
76423;SDS011;65257;52.104;4.268;2024-02-04T05:07:12;17.30;;;5.93;;
76423;SDS011;65257;52.104;4.268;2024-02-04T05:09:38;23.33;;;6.20;;
76423;SDS011;65257;52.104;4.268;2024-02-04T05:12:04;20.33;;;5.70;;
76423;SDS011;65257;52.104;4.268;2024-02-04T05:14:38;18.30;;;6.13;;
76423;SDS011;65257;52.104;4.268;2024-02-04T05:17:04;30.40;;;8.10;;
76423;SDS011;65257;52.104;4.268;2024-02-04T05:19:31;20.70;;;6.03;;
76423;SDS011;65257;52.104;4.268;2024-02-04T05:21:59;23.20;;;6.30;;
76423;SDS011;65257;52.104;4.268;2024-02-04T05:24:25;20.02;;;6.10;;
76423;SDS011;65257;52.104;4.268;2024-02-04T05:26:50;23.42;;;6.38;;
76423;SDS011;65257;52.104;4.268;2024-02-04T05:29:16;29.33;;;6.45;;
76423;SDS011;65257;52.104;4.268;2024-02-04T05:31:42;21.75;;;6.50;;
76423;SDS011;65257;52.104;4.268;2024-02-04T05:34:08;35.08;;;7.22;;
76423;SDS011;65257;52.104;4.268;2024-02-04T05:36:37;26.13;;;5.70;;
76423;SDS011;65257;52.104;4.268;2024-02-04T05:39:13;22.40;;;5.55;;
76423;SDS011;65257;52.104;4.268;2024-02-04T05:41:39;24.45;;;6.00;;
76423;SDS011;65257;52.104;4.268;2024-02-04T05:44:08;22.98;;;5.10;;
76423;SDS011;65257;52.104;4.268;2024-02-04T05:46:34;30.25;;;6.18;;
76423;SDS011;65257;52.104;4.268;2024-02-04T05:49:01;33.60;;;6.07;;
76423;SDS011;65257;52.104;4.268;2024-02-04T05:51:27;30.17;;;6.75;;
76423;SDS011;65257;52.104;4.268;2024-02-04T05:53:52;33.75;;;7.07;;
76423;SDS011;65257;52.104;4.268;2024-02-04T05:56:22;25.48;;;5.60;;
76423;SDS011;65257;52.104;4.268;2024-02-04T05:58:48;22.63;;;5.03;;
76423;SDS011;65257;52.104;4.268;2024-02-04T06:01:15;23.35;;;5.28;;
76423;SDS011;65257;52.104;4.268;2024-02-04T06:03:44;17.63;;;5.55;;
76423;SDS011;65257;52.104;4.268;2024-02-04T06:06:19;19.92;;;5.53;;
76423;SDS011;65257;52.104;4.268;2024-02-04T06:08:45;19.05;;;5.22;;
76423;SDS011;65257;52.104;4.268;2024-02-04T06:11:21;19.88;;;5.68;;
76423;SDS011;65257;52.104;4.268;2024-02-04T06:13:46;52.30;;;6.88;;
76423;SDS011;65257;52.104;4.268;2024-02-04T06:16:16;18.27;;;6.65;;
76423;SDS011;65257;52.104;4.268;2024-02-04T06:18:45;23.92;;;6.85;;
76423;SDS011;65257;52.104;4.268;2024-02-04T06:21:13;22.00;;;6.28;;
76423;SDS011;65257;52.104;4.268;2024-02-04T06:23:38;19.25;;;5.88;;
76423;SDS011;65257;52.104;4.268;2024-02-04T06:26:09;19.17;;;5.43;;
76423;SDS011;65257;52.104;4.268;2024-02-04T06:28:35;14.50;;;5.45;;
76423;SDS011;65257;52.104;4.268;2024-02-04T06:31:00;25.30;;;6.88;;
76423;SDS011;65257;52.104;4.268;2024-02-04T06:33:25;28.15;;;6.85;;
76423;SDS011;65257;52.104;4.268;2024-02-04T06:35:54;20.63;;;5.55;;
76423;SDS011;65257;52.104;4.268;2024-02-04T06:38:19;20.70;;;6.28;;
76423;SDS011;65257;52.104;4.268;2024-02-04T06:40:44;29.88;;;6.88;;
76423;SDS011;65257;52.104;4.268;2024-02-04T06:43:10;26.08;;;6.38;;
76423;SDS011;65257;52.104;4.268;2024-02-04T06:45:36;23.20;;;6.18;;
76423;SDS011;65257;52.104;4.268;2024-02-04T06:48:04;27.65;;;6.88;;
76423;SDS011;65257;52.104;4.268;2024-02-04T06:50:30;26.48;;;7.03;;
76423;SDS011;65257;52.104;4.268;2024-02-04T06:52:59;29.52;;;8.20;;
76423;SDS011;65257;52.104;4.268;2024-02-04T06:55:24;34.40;;;6.63;;
76423;SDS011;65257;52.104;4.268;2024-02-04T06:57:50;35.42;;;6.72;;
76423;SDS011;65257;52.104;4.268;2024-02-04T07:00:15;39.25;;;7.70;;
76423;SDS011;65257;52.104;4.268;2024-02-04T07:02:41;26.45;;;6.05;;
76423;SDS011;65257;52.104;4.268;2024-02-04T07:05:07;19.42;;;6.28;;
76423;SDS011;65257;52.104;4.268;2024-02-04T07:07:36;26.05;;;6.63;;
76423;SDS011;65257;52.104;4.268;2024-02-04T07:10:01;30.17;;;8.30;;
76423;SDS011;65257;52.104;4.268;2024-02-04T07:12:27;28.70;;;7.47;;
76423;SDS011;65257;52.104;4.268;2024-02-04T07:14:52;30.83;;;7.80;;
76423;SDS011;65257;52.104;4.268;2024-02-04T07:17:21;31.10;;;7.82;;
76423;SDS011;65257;52.104;4.268;2024-02-04T07:19:46;36.60;;;7.30;;
76423;SDS011;65257;52.104;4.268;2024-02-04T07:22:15;31.08;;;6.90;;
76423;SDS011;65257;52.104;4.268;2024-02-04T07:24:40;33.83;;;6.78;;
76423;SDS011;65257;52.104;4.268;2024-02-04T07:27:06;40.53;;;7.75;;
76423;SDS011;65257;52.104;4.268;2024-02-04T07:29:31;24.10;;;4.90;;
76423;SDS011;65257;52.104;4.268;2024-02-04T07:31:56;37.65;;;6.57;;
76423;SDS011;65257;52.104;4.268;2024-02-04T07:34:23;31.02;;;5.25;;
76423;SDS011;65257;52.104;4.268;2024-02-04T07:36:49;23.25;;;5.97;;
76423;SDS011;65257;52.104;4.268;2024-02-04T07:39:17;34.15;;;6.43;;
76423;SDS011;65257;52.104;4.268;2024-02-04T07:41:42;30.45;;;6.07;;
76423;SDS011;65257;52.104;4.268;2024-02-04T07:44:07;24.17;;;5.18;;
76423;SDS011;65257;52.104;4.268;2024-02-04T07:46:37;30.05;;;6.15;;
76423;SDS011;65257;52.104;4.268;2024-02-04T07:49:03;18.75;;;4.70;;
76423;SDS011;65257;52.104;4.268;2024-02-04T07:51:28;23.30;;;4.78;;
76423;SDS011;65257;52.104;4.268;2024-02-04T07:53:53;31.70;;;5.07;;
76423;SDS011;65257;52.104;4.268;2024-02-04T07:56:19;34.17;;;5.05;;
76423;SDS011;65257;52.104;4.268;2024-02-04T07:58:47;24.35;;;4.25;;
76423;SDS011;65257;52.104;4.268;2024-02-04T08:01:12;18.20;;;4.25;;
76423;SDS011;65257;52.104;4.268;2024-02-04T08:03:38;23.35;;;4.90;;
76423;SDS011;65257;52.104;4.268;2024-02-04T08:06:03;21.20;;;4.25;;
76423;SDS011;65257;52.104;4.268;2024-02-04T08:08:29;22.55;;;5.47;;
76423;SDS011;65257;52.104;4.268;2024-02-04T08:10:54;24.92;;;3.53;;
76423;SDS011;65257;52.104;4.268;2024-02-04T08:13:20;18.30;;;4.45;;
76423;SDS011;65257;52.104;4.268;2024-02-04T08:15:45;12.05;;;4.07;;
76423;SDS011;65257;52.104;4.268;2024-02-04T08:18:10;25.83;;;5.45;;
76423;SDS011;65257;52.104;4.268;2024-02-04T08:20:36;23.08;;;5.38;;
76423;SDS011;65257;52.104;4.268;2024-02-04T08:23:01;15.20;;;4.10;;
76423;SDS011;65257;52.104;4.268;2024-02-04T08:25:27;17.13;;;3.42;;
76423;SDS011;65257;52.104;4.268;2024-02-04T08:27:55;23.38;;;5.30;;
76423;SDS011;65257;52.104;4.268;2024-02-04T08:30:20;14.40;;;3.90;;
76423;SDS011;65257;52.104;4.268;2024-02-04T08:32:46;22.13;;;4.05;;
76423;SDS011;65257;52.104;4.268;2024-02-04T08:35:11;16.42;;;4.03;;
76423;SDS011;65257;52.104;4.268;2024-02-04T08:37:37;17.63;;;4.13;;
76423;SDS011;65257;52.104;4.268;2024-02-04T08:40:03;23.45;;;4.55;;
76423;SDS011;65257;52.104;4.268;2024-02-04T08:42:31;22.77;;;4.25;;
76423;SDS011;65257;52.104;4.268;2024-02-04T08:44:56;21.25;;;4.35;;
76423;SDS011;65257;52.104;4.268;2024-02-04T08:47:25;21.15;;;3.78;;
76423;SDS011;65257;52.104;4.268;2024-02-04T08:49:51;21.42;;;4.35;;
76423;SDS011;65257;52.104;4.268;2024-02-04T08:52:19;17.88;;;3.60;;
76423;SDS011;65257;52.104;4.268;2024-02-04T08:54:45;17.23;;;3.47;;
76423;SDS011;65257;52.104;4.268;2024-02-04T08:57:13;12.40;;;3.10;;
76423;SDS011;65257;52.104;4.268;2024-02-04T08:59:40;17.77;;;4.45;;
76423;SDS011;65257;52.104;4.268;2024-02-04T09:02:06;15.13;;;3.38;;
76423;SDS011;65257;52.104;4.268;2024-02-04T09:04:32;19.80;;;3.70;;
76423;SDS011;65257;52.104;4.268;2024-02-04T09:07:05;18.67;;;3.30;;
76423;SDS011;65257;52.104;4.268;2024-02-04T09:09:31;21.25;;;3.58;;
76423;SDS011;65257;52.104;4.268;2024-02-04T09:11:56;18.48;;;3.45;;
76423;SDS011;65257;52.104;4.268;2024-02-04T09:14:22;12.98;;;3.42;;
76423;SDS011;65257;52.104;4.268;2024-02-04T09:16:47;24.10;;;4.10;;
76423;SDS011;65257;52.104;4.268;2024-02-04T09:19:13;12.73;;;3.20;;
76423;SDS011;65257;52.104;4.268;2024-02-04T09:21:39;18.17;;;3.28;;
76423;SDS011;65257;52.104;4.268;2024-02-04T09:24:04;20.40;;;3.47;;
76423;SDS011;65257;52.104;4.268;2024-02-04T09:26:30;12.75;;;3.42;;
76423;SDS011;65257;52.104;4.268;2024-02-04T09:28:55;11.40;;;3.03;;
76423;SDS011;65257;52.104;4.268;2024-02-04T09:31:24;10.25;;;3.60;;
76423;SDS011;65257;52.104;4.268;2024-02-04T09:33:50;11.85;;;2.90;;
76423;SDS011;65257;52.104;4.268;2024-02-04T09:36:18;12.93;;;2.90;;
76423;SDS011;65257;52.104;4.268;2024-02-04T09:38:47;18.00;;;4.53;;
76423;SDS011;65257;52.104;4.268;2024-02-04T09:41:12;19.95;;;4.70;;
76423;SDS011;65257;52.104;4.268;2024-02-04T09:43:41;26.23;;;4.88;;
76423;SDS011;65257;52.104;4.268;2024-02-04T09:46:12;15.13;;;4.35;;
76423;SDS011;65257;52.104;4.268;2024-02-04T09:48:38;22.23;;;4.15;;
76423;SDS011;65257;52.104;4.268;2024-02-04T09:51:06;18.25;;;3.95;;
76423;SDS011;65257;52.104;4.268;2024-02-04T09:53:33;23.75;;;4.32;;
76423;SDS011;65257;52.104;4.268;2024-02-04T09:56:09;19.10;;;4.65;;
76423;SDS011;65257;52.104;4.268;2024-02-04T09:58:37;25.95;;;4.60;;
76423;SDS011;65257;52.104;4.268;2024-02-04T10:01:06;31.27;;;4.57;;
76423;SDS011;65257;52.104;4.268;2024-02-04T10:03:37;23.45;;;4.75;;
76423;SDS011;65257;52.104;4.268;2024-02-04T10:06:03;24.27;;;4.82;;
76423;SDS011;65257;52.104;4.268;2024-02-04T10:08:29;26.98;;;5.07;;
76423;SDS011;65257;52.104;4.268;2024-02-04T10:10:54;26.88;;;3.90;;
76423;SDS011;65257;52.104;4.268;2024-02-04T10:13:20;19.17;;;4.80;;
76423;SDS011;65257;52.104;4.268;2024-02-04T10:15:47;21.00;;;3.88;;
76423;SDS011;65257;52.104;4.268;2024-02-04T10:18:13;18.50;;;4.07;;
76423;SDS011;65257;52.104;4.268;2024-02-04T10:20:38;18.95;;;3.33;;
76423;SDS011;65257;52.104;4.268;2024-02-04T10:23:04;19.45;;;3.40;;
76423;SDS011;65257;52.104;4.268;2024-02-04T10:25:30;18.67;;;3.47;;
76423;SDS011;65257;52.104;4.268;2024-02-04T10:27:56;22.08;;;3.67;;
76423;SDS011;65257;52.104;4.268;2024-02-04T10:30:23;17.60;;;3.67;;
76423;SDS011;65257;52.104;4.268;2024-02-04T10:32:55;17.05;;;3.88;;
76423;SDS011;65257;52.104;4.268;2024-02-04T10:35:21;21.92;;;3.63;;
76423;SDS011;65257;52.104;4.268;2024-02-04T10:37:49;23.40;;;4.20;;
76423;SDS011;65257;52.104;4.268;2024-02-04T10:40:15;16.77;;;2.95;;
76423;SDS011;65257;52.104;4.268;2024-02-04T10:42:45;25.30;;;3.58;;
76423;SDS011;65257;52.104;4.268;2024-02-04T10:45:11;16.60;;;3.35;;
76423;SDS011;65257;52.104;4.268;2024-02-04T10:47:56;22.90;;;3.90;;
76423;SDS011;65257;52.104;4.268;2024-02-04T10:50:24;15.88;;;3.05;;
76423;SDS011;65257;52.104;4.268;2024-02-04T10:52:55;15.60;;;3.58;;
76423;SDS011;65257;52.104;4.268;2024-02-04T10:55:27;13.77;;;3.33;;
76423;SDS011;65257;52.104;4.268;2024-02-04T10:57:55;11.93;;;3.55;;
76423;SDS011;65257;52.104;4.268;2024-02-04T11:00:21;17.20;;;4.25;;
76423;SDS011;65257;52.104;4.268;2024-02-04T11:02:51;26.02;;;5.93;;
76423;SDS011;65257;52.104;4.268;2024-02-04T11:05:22;15.25;;;3.80;;
76423;SDS011;65257;52.104;4.268;2024-02-04T11:07:52;16.35;;;4.00;;
76423;SDS011;65257;52.104;4.268;2024-02-04T11:10:17;26.08;;;4.25;;
76423;SDS011;65257;52.104;4.268;2024-02-04T11:12:44;14.80;;;3.72;;
76423;SDS011;65257;52.104;4.268;2024-02-04T11:15:12;12.75;;;2.90;;
76423;SDS011;65257;52.104;4.268;2024-02-04T11:18:05;18.67;;;4.00;;
76423;SDS011;65257;52.104;4.268;2024-02-04T11:26:41;15.50;;;3.30;;
76423;SDS011;65257;52.104;4.268;2024-02-04T11:29:10;14.35;;;3.58;;
76423;SDS011;65257;52.104;4.268;2024-02-04T11:31:40;21.70;;;3.58;;
76423;SDS011;65257;52.104;4.268;2024-02-04T11:34:05;20.08;;;3.63;;
76423;SDS011;65257;52.104;4.268;2024-02-04T11:36:37;12.70;;;3.35;;
76423;SDS011;65257;52.104;4.268;2024-02-04T11:39:12;13.65;;;3.55;;
76423;SDS011;65257;52.104;4.268;2024-02-04T11:41:46;18.33;;;4.20;;
76423;SDS011;65257;52.104;4.268;2024-02-04T11:44:20;17.90;;;3.35;;
76423;SDS011;65257;52.104;4.268;2024-02-04T11:49:19;26.48;;;4.05;;
76423;SDS011;65257;52.104;4.268;2024-02-04T11:51:47;23.80;;;3.78;;
76423;SDS011;65257;52.104;4.268;2024-02-04T11:54:16;15.35;;;3.72;;
76423;SDS011;65257;52.104;4.268;2024-02-04T11:56:45;17.90;;;3.95;;
76423;SDS011;65257;52.104;4.268;2024-02-04T11:59:17;14.90;;;3.65;;
76423;SDS011;65257;52.104;4.268;2024-02-04T12:02:05;16.10;;;4.22;;
76423;SDS011;65257;52.104;4.268;2024-02-04T12:04:31;27.52;;;4.22;;
76423;SDS011;65257;52.104;4.268;2024-02-04T12:06:57;18.90;;;4.03;;
76423;SDS011;65257;52.104;4.268;2024-02-04T12:09:23;16.83;;;3.70;;
76423;SDS011;65257;52.104;4.268;2024-02-04T12:11:51;20.60;;;3.17;;
76423;SDS011;65257;52.104;4.268;2024-02-04T12:14:18;16.48;;;3.58;;
76423;SDS011;65257;52.104;4.268;2024-02-04T12:16:44;18.15;;;3.72;;
76423;SDS011;65257;52.104;4.268;2024-02-04T12:19:10;19.95;;;3.78;;
76423;SDS011;65257;52.104;4.268;2024-02-04T12:21:36;19.95;;;3.75;;
76423;SDS011;65257;52.104;4.268;2024-02-04T12:24:05;20.13;;;3.55;;
76423;SDS011;65257;52.104;4.268;2024-02-04T12:26:31;21.67;;;3.92;;
76423;SDS011;65257;52.104;4.268;2024-02-04T12:28:58;16.05;;;4.00;;
76423;SDS011;65257;52.104;4.268;2024-02-04T12:31:26;22.00;;;5.22;;
76423;SDS011;65257;52.104;4.268;2024-02-04T12:33:57;15.13;;;3.25;;
76423;SDS011;65257;52.104;4.268;2024-02-04T12:36:26;25.88;;;5.30;;
76423;SDS011;65257;52.104;4.268;2024-02-04T12:38:53;15.80;;;3.85;;
76423;SDS011;65257;52.104;4.268;2024-02-04T12:41:21;21.52;;;4.50;;
76423;SDS011;65257;52.104;4.268;2024-02-04T12:43:51;23.27;;;5.18;;
76423;SDS011;65257;52.104;4.268;2024-02-04T12:46:33;20.30;;;5.18;;
76423;SDS011;65257;52.104;4.268;2024-02-04T12:48:59;19.40;;;4.07;;
76423;SDS011;65257;52.104;4.268;2024-02-04T12:51:25;28.23;;;4.55;;
76423;SDS011;65257;52.104;4.268;2024-02-04T12:54:01;22.08;;;4.93;;
76423;SDS011;65257;52.104;4.268;2024-02-04T12:59:12;28.67;;;4.38;;
76423;SDS011;65257;52.104;4.268;2024-02-04T13:02:14;23.95;;;4.53;;
76423;SDS011;65257;52.104;4.268;2024-02-04T13:04:40;26.20;;;5.10;;
76423;SDS011;65257;52.104;4.268;2024-02-04T13:07:10;27.25;;;4.95;;
76423;SDS011;65257;52.104;4.268;2024-02-04T13:09:43;28.63;;;5.75;;
76423;SDS011;65257;52.104;4.268;2024-02-04T13:12:14;29.38;;;4.85;;
76423;SDS011;65257;52.104;4.268;2024-02-04T13:14:41;27.38;;;5.60;;
76423;SDS011;65257;52.104;4.268;2024-02-04T13:17:07;24.98;;;4.85;;
76423;SDS011;65257;52.104;4.268;2024-02-04T13:19:36;37.75;;;5.53;;
76423;SDS011;65257;52.104;4.268;2024-02-04T13:22:04;21.75;;;6.25;;
76423;SDS011;65257;52.104;4.268;2024-02-04T13:24:31;37.70;;;5.75;;
76423;SDS011;65257;52.104;4.268;2024-02-04T13:27:05;34.38;;;5.05;;
76423;SDS011;65257;52.104;4.268;2024-02-04T13:29:37;36.97;;;5.53;;
76423;SDS011;65257;52.104;4.268;2024-02-04T13:32:02;31.55;;;5.05;;
76423;SDS011;65257;52.104;4.268;2024-02-04T13:34:34;24.25;;;4.72;;
76423;SDS011;65257;52.104;4.268;2024-02-04T13:37:00;26.33;;;4.15;;
76423;SDS011;65257;52.104;4.268;2024-02-04T13:39:26;27.77;;;5.25;;
76423;SDS011;65257;52.104;4.268;2024-02-04T13:41:52;26.40;;;4.85;;
76423;SDS011;65257;52.104;4.268;2024-02-04T13:44:17;41.25;;;6.97;;
76423;SDS011;65257;52.104;4.268;2024-02-04T13:46:42;23.08;;;4.43;;
76423;SDS011;65257;52.104;4.268;2024-02-04T13:49:08;29.42;;;6.05;;
76423;SDS011;65257;52.104;4.268;2024-02-04T13:51:34;27.58;;;4.63;;
76423;SDS011;65257;52.104;4.268;2024-02-04T13:54:01;34.95;;;5.72;;
76423;SDS011;65257;52.104;4.268;2024-02-04T13:56:27;23.75;;;4.15;;
76423;SDS011;65257;52.104;4.268;2024-02-04T13:58:56;21.05;;;4.22;;
76423;SDS011;65257;52.104;4.268;2024-02-04T14:01:24;36.85;;;6.38;;
76423;SDS011;65257;52.104;4.268;2024-02-04T14:03:49;23.17;;;5.00;;
76423;SDS011;65257;52.104;4.268;2024-02-04T14:06:15;19.13;;;4.57;;
76423;SDS011;65257;52.104;4.268;2024-02-04T14:08:41;34.88;;;5.68;;
76423;SDS011;65257;52.104;4.268;2024-02-04T14:11:26;26.17;;;5.72;;
76423;SDS011;65257;52.104;4.268;2024-02-04T14:13:52;31.63;;;6.25;;
76423;SDS011;65257;52.104;4.268;2024-02-04T14:16:18;23.40;;;4.63;;
76423;SDS011;65257;52.104;4.268;2024-02-04T14:18:48;29.17;;;5.22;;
76423;SDS011;65257;52.104;4.268;2024-02-04T14:21:13;40.88;;;5.82;;
76423;SDS011;65257;52.104;4.268;2024-02-04T14:23:41;32.58;;;5.88;;
76423;SDS011;65257;52.104;4.268;2024-02-04T14:26:07;23.02;;;5.15;;
76423;SDS011;65257;52.104;4.268;2024-02-04T14:28:41;31.38;;;5.00;;
76423;SDS011;65257;52.104;4.268;2024-02-04T14:31:07;32.10;;;6.63;;
76423;SDS011;65257;52.104;4.268;2024-02-04T14:33:33;29.40;;;5.90;;
76423;SDS011;65257;52.104;4.268;2024-02-04T14:35:58;30.25;;;5.68;;
76423;SDS011;65257;52.104;4.268;2024-02-04T14:38:28;27.33;;;5.35;;
76423;SDS011;65257;52.104;4.268;2024-02-04T14:40:54;27.00;;;5.68;;
76423;SDS011;65257;52.104;4.268;2024-02-04T14:43:19;29.45;;;9.73;;
76423;SDS011;65257;52.104;4.268;2024-02-04T14:45:47;28.05;;;8.02;;
76423;SDS011;65257;52.104;4.268;2024-02-04T14:48:12;27.88;;;5.57;;
76423;SDS011;65257;52.104;4.268;2024-02-04T14:50:38;28.48;;;6.38;;
76423;SDS011;65257;52.104;4.268;2024-02-04T14:53:05;25.13;;;5.55;;
76423;SDS011;65257;52.104;4.268;2024-02-04T14:55:31;28.20;;;5.55;;
76423;SDS011;65257;52.104;4.268;2024-02-04T14:57:57;25.50;;;5.57;;